sensor_id;sensor_type;location;lat;lon;timestamp;P1;durP1;ratioP1;P2;durP2;ratioP2
70467;SDS011;57934;51.532;7.684;2023-02-23T00:01:35;70.20;;;44.13;;
70467;SDS011;57934;51.532;7.684;2023-02-23T00:04:02;70.65;;;44.45;;
70467;SDS011;57934;51.532;7.684;2023-02-23T00:06:29;72.13;;;47.20;;
70467;SDS011;57934;51.532;7.684;2023-02-23T00:08:56;72.25;;;45.10;;
70467;SDS011;57934;51.532;7.684;2023-02-23T00:11:25;74.15;;;45.20;;
70467;SDS011;57934;51.532;7.684;2023-02-23T00:13:53;72.95;;;47.83;;
70467;SDS011;57934;51.532;7.684;2023-02-23T00:16:22;72.63;;;47.05;;
70467;SDS011;57934;51.532;7.684;2023-02-23T00:18:50;75.28;;;47.25;;
70467;SDS011;57934;51.532;7.684;2023-02-23T00:21:19;73.13;;;47.17;;
70467;SDS011;57934;51.532;7.684;2023-02-23T00:23:51;79.13;;;48.35;;
70467;SDS011;57934;51.532;7.684;2023-02-23T00:26:20;77.35;;;48.88;;
70467;SDS011;57934;51.532;7.684;2023-02-23T00:28:52;79.72;;;50.15;;
70467;SDS011;57934;51.532;7.684;2023-02-23T00:31:19;74.57;;;49.83;;
70467;SDS011;57934;51.532;7.684;2023-02-23T00:33:50;78.72;;;49.92;;
70467;SDS011;57934;51.532;7.684;2023-02-23T00:36:19;82.25;;;51.85;;
70467;SDS011;57934;51.532;7.684;2023-02-23T00:38:50;82.40;;;50.75;;
70467;SDS011;57934;51.532;7.684;2023-02-23T00:41:19;79.45;;;51.35;;
70467;SDS011;57934;51.532;7.684;2023-02-23T00:43:53;81.00;;;50.60;;
70467;SDS011;57934;51.532;7.684;2023-02-23T00:46:21;92.45;;;53.25;;
70467;SDS011;57934;51.532;7.684;2023-02-23T00:48:49;89.20;;;52.72;;
70467;SDS011;57934;51.532;7.684;2023-02-23T00:51:16;88.10;;;53.03;;
70467;SDS011;57934;51.532;7.684;2023-02-23T00:53:44;95.20;;;55.40;;
70467;SDS011;57934;51.532;7.684;2023-02-23T00:56:10;94.47;;;54.38;;
70467;SDS011;57934;51.532;7.684;2023-02-23T00:58:39;87.60;;;53.20;;
70467;SDS011;57934;51.532;7.684;2023-02-23T01:01:06;95.85;;;55.33;;
70467;SDS011;57934;51.532;7.684;2023-02-23T01:03:33;94.85;;;54.10;;
70467;SDS011;57934;51.532;7.684;2023-02-23T01:05:59;93.30;;;54.75;;
70467;SDS011;57934;51.532;7.684;2023-02-23T01:08:30;102.28;;;57.78;;
70467;SDS011;57934;51.532;7.684;2023-02-23T01:11:07;97.93;;;57.67;;
70467;SDS011;57934;51.532;7.684;2023-02-23T01:13:35;108.45;;;58.60;;
70467;SDS011;57934;51.532;7.684;2023-02-23T01:16:04;98.97;;;57.88;;
70467;SDS011;57934;51.532;7.684;2023-02-23T01:18:32;106.65;;;61.17;;
70467;SDS011;57934;51.532;7.684;2023-02-23T01:21:02;109.80;;;61.45;;
70467;SDS011;57934;51.532;7.684;2023-02-23T01:23:31;110.50;;;60.50;;
70467;SDS011;57934;51.532;7.684;2023-02-23T01:25:57;111.68;;;60.80;;
70467;SDS011;57934;51.532;7.684;2023-02-23T01:28:24;110.88;;;60.22;;
70467;SDS011;57934;51.532;7.684;2023-02-23T01:30:50;115.82;;;63.00;;
70467;SDS011;57934;51.532;7.684;2023-02-23T01:33:16;111.45;;;61.58;;
70467;SDS011;57934;51.532;7.684;2023-02-23T01:35:42;112.47;;;63.13;;
70467;SDS011;57934;51.532;7.684;2023-02-23T01:38:09;104.35;;;59.90;;
70467;SDS011;57934;51.532;7.684;2023-02-23T01:40:36;108.70;;;60.05;;
70467;SDS011;57934;51.532;7.684;2023-02-23T01:43:14;113.78;;;61.10;;
70467;SDS011;57934;51.532;7.684;2023-02-23T01:45:42;125.43;;;64.85;;
70467;SDS011;57934;51.532;7.684;2023-02-23T01:48:23;118.85;;;62.80;;
70467;SDS011;57934;51.532;7.684;2023-02-23T01:50:59;129.48;;;66.18;;
70467;SDS011;57934;51.532;7.684;2023-02-23T01:53:31;126.60;;;65.72;;
70467;SDS011;57934;51.532;7.684;2023-02-23T01:56:06;113.00;;;61.65;;
70467;SDS011;57934;51.532;7.684;2023-02-23T01:58:38;124.35;;;63.75;;
70467;SDS011;57934;51.532;7.684;2023-02-23T02:01:06;119.60;;;64.97;;
70467;SDS011;57934;51.532;7.684;2023-02-23T02:03:37;131.02;;;67.35;;
70467;SDS011;57934;51.532;7.684;2023-02-23T02:06:06;121.22;;;65.68;;
70467;SDS011;57934;51.532;7.684;2023-02-23T02:08:37;125.78;;;66.82;;
70467;SDS011;57934;51.532;7.684;2023-02-23T02:11:10;126.85;;;67.47;;
70467;SDS011;57934;51.532;7.684;2023-02-23T02:13:57;120.63;;;64.22;;
70467;SDS011;57934;51.532;7.684;2023-02-23T02:27:40;134.73;;;68.13;;
70467;SDS011;57934;51.532;7.684;2023-02-23T02:35:34;130.43;;;70.07;;
70467;SDS011;57934;51.532;7.684;2023-02-23T02:42:00;130.57;;;68.57;;
70467;SDS011;57934;51.532;7.684;2023-02-23T02:46:41;133.77;;;69.47;;
70467;SDS011;57934;51.532;7.684;2023-02-23T02:49:14;135.85;;;67.50;;
70467;SDS011;57934;51.532;7.684;2023-02-23T02:54:30;143.05;;;68.10;;
70467;SDS011;57934;51.532;7.684;2023-02-23T02:57:03;129.25;;;67.28;;
70467;SDS011;57934;51.532;7.684;2023-02-23T02:59:40;137.45;;;70.43;;
70467;SDS011;57934;51.532;7.684;2023-02-23T03:02:26;137.38;;;69.78;;
70467;SDS011;57934;51.532;7.684;2023-02-23T03:05:16;124.53;;;67.07;;
70467;SDS011;57934;51.532;7.684;2023-02-23T03:11:09;131.45;;;66.13;;
70467;SDS011;57934;51.532;7.684;2023-02-23T03:20:25;134.40;;;69.15;;
70467;SDS011;57934;51.532;7.684;2023-02-23T03:23:22;138.00;;;70.53;;
70467;SDS011;57934;51.532;7.684;2023-02-23T03:26:22;149.93;;;72.95;;
70467;SDS011;57934;51.532;7.684;2023-02-23T03:35:24;152.90;;;74.73;;
70467;SDS011;57934;51.532;7.684;2023-02-23T03:38:18;146.25;;;73.85;;
70467;SDS011;57934;51.532;7.684;2023-02-23T03:41:09;146.32;;;71.75;;
70467;SDS011;57934;51.532;7.684;2023-02-23T03:43:57;139.38;;;71.35;;
70467;SDS011;57934;51.532;7.684;2023-02-23T03:46:46;147.10;;;73.20;;
70467;SDS011;57934;51.532;7.684;2023-02-23T03:49:35;137.90;;;72.00;;
70467;SDS011;57934;51.532;7.684;2023-02-23T03:52:25;143.82;;;72.47;;
70467;SDS011;57934;51.532;7.684;2023-02-23T03:55:15;134.82;;;69.82;;
70467;SDS011;57934;51.532;7.684;2023-02-23T03:58:04;149.23;;;74.18;;
70467;SDS011;57934;51.532;7.684;2023-02-23T04:00:54;143.23;;;73.25;;
70467;SDS011;57934;51.532;7.684;2023-02-23T04:03:41;135.05;;;71.78;;
70467;SDS011;57934;51.532;7.684;2023-02-23T04:06:30;132.52;;;68.38;;
70467;SDS011;57934;51.532;7.684;2023-02-23T04:09:19;139.40;;;72.30;;
70467;SDS011;57934;51.532;7.684;2023-02-23T04:12:12;140.65;;;73.53;;
70467;SDS011;57934;51.532;7.684;2023-02-23T04:15:06;155.73;;;68.35;;
70467;SDS011;57934;51.532;7.684;2023-02-23T04:17:38;157.00;;;69.05;;
70467;SDS011;57934;51.532;7.684;2023-02-23T04:20:05;164.93;;;68.10;;
70467;SDS011;57934;51.532;7.684;2023-02-23T04:22:31;144.30;;;72.93;;
70467;SDS011;57934;51.532;7.684;2023-02-23T04:24:57;145.38;;;76.00;;
70467;SDS011;57934;51.532;7.684;2023-02-23T04:27:23;147.50;;;71.30;;
70467;SDS011;57934;51.532;7.684;2023-02-23T04:29:49;153.77;;;75.32;;
70467;SDS011;57934;51.532;7.684;2023-02-23T04:32:16;140.02;;;70.82;;
70467;SDS011;57934;51.532;7.684;2023-02-23T04:34:43;153.90;;;75.20;;
70467;SDS011;57934;51.532;7.684;2023-02-23T04:37:10;170.48;;;76.28;;
70467;SDS011;57934;51.532;7.684;2023-02-23T04:39:36;153.82;;;73.97;;
70467;SDS011;57934;51.532;7.684;2023-02-23T04:42:02;154.40;;;74.95;;
70467;SDS011;57934;51.532;7.684;2023-02-23T04:44:28;162.25;;;74.13;;
70467;SDS011;57934;51.532;7.684;2023-02-23T04:46:55;164.48;;;78.00;;
70467;SDS011;57934;51.532;7.684;2023-02-23T04:49:22;159.00;;;75.97;;
70467;SDS011;57934;51.532;7.684;2023-02-23T04:51:49;157.32;;;73.20;;
70467;SDS011;57934;51.532;7.684;2023-02-23T04:54:14;158.75;;;73.53;;
70467;SDS011;57934;51.532;7.684;2023-02-23T04:56:40;181.93;;;77.93;;
70467;SDS011;57934;51.532;7.684;2023-02-23T04:59:06;194.38;;;78.38;;
70467;SDS011;57934;51.532;7.684;2023-02-23T05:01:32;223.20;;;82.90;;
70467;SDS011;57934;51.532;7.684;2023-02-23T05:03:58;238.18;;;86.00;;
70467;SDS011;57934;51.532;7.684;2023-02-23T05:06:29;207.55;;;83.28;;
70467;SDS011;57934;51.532;7.684;2023-02-23T05:08:55;183.95;;;79.60;;
70467;SDS011;57934;51.532;7.684;2023-02-23T05:11:21;202.82;;;83.90;;
70467;SDS011;57934;51.532;7.684;2023-02-23T05:13:47;207.80;;;82.18;;
70467;SDS011;57934;51.532;7.684;2023-02-23T05:16:13;201.32;;;83.78;;
70467;SDS011;57934;51.532;7.684;2023-02-23T05:18:39;211.88;;;82.95;;
70467;SDS011;57934;51.532;7.684;2023-02-23T05:21:06;208.13;;;85.18;;
70467;SDS011;57934;51.532;7.684;2023-02-23T05:23:34;209.52;;;82.40;;
70467;SDS011;57934;51.532;7.684;2023-02-23T05:26:01;219.00;;;85.53;;
70467;SDS011;57934;51.532;7.684;2023-02-23T05:28:33;203.45;;;83.53;;
70467;SDS011;57934;51.532;7.684;2023-02-23T05:30:59;205.35;;;83.32;;
70467;SDS011;57934;51.532;7.684;2023-02-23T05:33:28;189.10;;;84.22;;
70467;SDS011;57934;51.532;7.684;2023-02-23T05:35:54;197.45;;;82.88;;
70467;SDS011;57934;51.532;7.684;2023-02-23T05:38:21;202.63;;;85.57;;
70467;SDS011;57934;51.532;7.684;2023-02-23T05:40:47;197.27;;;84.20;;
70467;SDS011;57934;51.532;7.684;2023-02-23T05:43:13;217.98;;;85.18;;
70467;SDS011;57934;51.532;7.684;2023-02-23T05:45:40;192.98;;;84.20;;
70467;SDS011;57934;51.532;7.684;2023-02-23T05:48:07;199.98;;;85.95;;
70467;SDS011;57934;51.532;7.684;2023-02-23T05:50:34;191.93;;;82.90;;
70467;SDS011;57934;51.532;7.684;2023-02-23T05:53:00;204.98;;;86.50;;
70467;SDS011;57934;51.532;7.684;2023-02-23T05:55:26;199.75;;;84.43;;
70467;SDS011;57934;51.532;7.684;2023-02-23T05:57:53;200.85;;;84.68;;
70467;SDS011;57934;51.532;7.684;2023-02-23T06:00:19;196.75;;;83.85;;
70467;SDS011;57934;51.532;7.684;2023-02-23T06:02:45;210.55;;;85.13;;
70467;SDS011;57934;51.532;7.684;2023-02-23T06:05:11;201.55;;;82.78;;
70467;SDS011;57934;51.532;7.684;2023-02-23T06:07:38;232.63;;;86.47;;
70467;SDS011;57934;51.532;7.684;2023-02-23T06:10:04;213.70;;;85.95;;
70467;SDS011;57934;51.532;7.684;2023-02-23T06:12:31;224.27;;;86.40;;
70467;SDS011;57934;51.532;7.684;2023-02-23T06:14:57;263.08;;;88.88;;
70467;SDS011;57934;51.532;7.684;2023-02-23T06:17:23;194.80;;;84.32;;
70467;SDS011;57934;51.532;7.684;2023-02-23T06:19:49;216.60;;;83.78;;
70467;SDS011;57934;51.532;7.684;2023-02-23T06:22:16;188.95;;;82.18;;
70467;SDS011;57934;51.532;7.684;2023-02-23T06:24:43;199.60;;;83.05;;
70467;SDS011;57934;51.532;7.684;2023-02-23T06:27:09;204.57;;;82.28;;
70467;SDS011;57934;51.532;7.684;2023-02-23T06:29:35;228.27;;;82.05;;
70467;SDS011;57934;51.532;7.684;2023-02-23T06:32:03;209.07;;;82.13;;
70467;SDS011;57934;51.532;7.684;2023-02-23T06:34:29;202.70;;;80.78;;
70467;SDS011;57934;51.532;7.684;2023-02-23T06:36:57;199.85;;;80.57;;
70467;SDS011;57934;51.532;7.684;2023-02-23T06:39:23;207.30;;;80.05;;
70467;SDS011;57934;51.532;7.684;2023-02-23T06:41:49;183.77;;;78.95;;
70467;SDS011;57934;51.532;7.684;2023-02-23T06:44:15;236.40;;;80.05;;
70467;SDS011;57934;51.532;7.684;2023-02-23T06:46:41;245.32;;;82.47;;
70467;SDS011;57934;51.532;7.684;2023-02-23T06:49:09;262.25;;;81.75;;
70467;SDS011;57934;51.532;7.684;2023-02-23T06:51:36;220.15;;;82.25;;
70467;SDS011;57934;51.532;7.684;2023-02-23T06:54:02;213.93;;;82.13;;
70467;SDS011;57934;51.532;7.684;2023-02-23T06:56:28;217.00;;;79.68;;
70467;SDS011;57934;51.532;7.684;2023-02-23T06:58:54;202.35;;;81.15;;
70467;SDS011;57934;51.532;7.684;2023-02-23T07:01:20;202.75;;;78.65;;
70467;SDS011;57934;51.532;7.684;2023-02-23T07:03:46;210.90;;;80.82;;
70467;SDS011;57934;51.532;7.684;2023-02-23T07:06:12;222.27;;;80.93;;
70467;SDS011;57934;51.532;7.684;2023-02-23T07:08:38;199.27;;;79.57;;
70467;SDS011;57934;51.532;7.684;2023-02-23T07:11:12;223.45;;;80.15;;
70467;SDS011;57934;51.532;7.684;2023-02-23T07:13:40;197.18;;;80.65;;
70467;SDS011;57934;51.532;7.684;2023-02-23T07:16:07;250.20;;;78.32;;
70467;SDS011;57934;51.532;7.684;2023-02-23T07:18:33;228.98;;;78.35;;
70467;SDS011;57934;51.532;7.684;2023-02-23T07:20:59;210.60;;;81.38;;
70467;SDS011;57934;51.532;7.684;2023-02-23T07:23:25;199.65;;;78.85;;
70467;SDS011;57934;51.532;7.684;2023-02-23T07:25:51;237.13;;;80.50;;
70467;SDS011;57934;51.532;7.684;2023-02-23T07:28:18;206.82;;;80.38;;
70467;SDS011;57934;51.532;7.684;2023-02-23T07:30:45;205.45;;;78.38;;
70467;SDS011;57934;51.532;7.684;2023-02-23T07:33:11;224.57;;;80.47;;
70467;SDS011;57934;51.532;7.684;2023-02-23T07:35:37;194.60;;;78.50;;
70467;SDS011;57934;51.532;7.684;2023-02-23T07:38:03;210.13;;;79.43;;
70467;SDS011;57934;51.532;7.684;2023-02-23T07:40:32;182.32;;;76.78;;
70467;SDS011;57934;51.532;7.684;2023-02-23T07:42:57;199.65;;;79.50;;
70467;SDS011;57934;51.532;7.684;2023-02-23T07:45:24;184.77;;;76.10;;
70467;SDS011;57934;51.532;7.684;2023-02-23T07:47:50;200.93;;;77.82;;
70467;SDS011;57934;51.532;7.684;2023-02-23T07:50:16;199.10;;;77.32;;
70467;SDS011;57934;51.532;7.684;2023-02-23T07:52:42;199.40;;;81.13;;
70467;SDS011;57934;51.532;7.684;2023-02-23T07:55:09;203.68;;;80.97;;
70467;SDS011;57934;51.532;7.684;2023-02-23T07:57:36;193.55;;;80.78;;
70467;SDS011;57934;51.532;7.684;2023-02-23T08:00:04;189.43;;;79.93;;
70467;SDS011;57934;51.532;7.684;2023-02-23T08:02:38;201.38;;;82.53;;
70467;SDS011;57934;51.532;7.684;2023-02-23T08:05:04;185.45;;;79.88;;
70467;SDS011;57934;51.532;7.684;2023-02-23T08:07:34;186.77;;;80.60;;
70467;SDS011;57934;51.532;7.684;2023-02-23T08:10:00;192.93;;;80.35;;
70467;SDS011;57934;51.532;7.684;2023-02-23T08:12:26;202.98;;;80.90;;
70467;SDS011;57934;51.532;7.684;2023-02-23T08:14:52;197.10;;;80.07;;
70467;SDS011;57934;51.532;7.684;2023-02-23T08:17:18;202.88;;;81.00;;
70467;SDS011;57934;51.532;7.684;2023-02-23T08:19:45;183.13;;;80.55;;
70467;SDS011;57934;51.532;7.684;2023-02-23T08:22:10;184.05;;;78.20;;
70467;SDS011;57934;51.532;7.684;2023-02-23T08:24:36;210.55;;;82.00;;
70467;SDS011;57934;51.532;7.684;2023-02-23T08:27:03;188.95;;;78.30;;
70467;SDS011;57934;51.532;7.684;2023-02-23T08:29:29;184.23;;;76.05;;
70467;SDS011;57934;51.532;7.684;2023-02-23T08:31:55;186.25;;;77.82;;
70467;SDS011;57934;51.532;7.684;2023-02-23T08:34:21;171.90;;;75.35;;
70467;SDS011;57934;51.532;7.684;2023-02-23T08:36:48;178.23;;;78.55;;
70467;SDS011;57934;51.532;7.684;2023-02-23T08:39:14;183.48;;;78.68;;
70467;SDS011;57934;51.532;7.684;2023-02-23T08:41:40;202.65;;;79.88;;
70467;SDS011;57934;51.532;7.684;2023-02-23T08:44:07;194.35;;;78.32;;
70467;SDS011;57934;51.532;7.684;2023-02-23T08:46:33;178.70;;;75.30;;
70467;SDS011;57934;51.532;7.684;2023-02-23T08:48:59;170.15;;;77.15;;
70467;SDS011;57934;51.532;7.684;2023-02-23T08:51:25;179.10;;;76.25;;
70467;SDS011;57934;51.532;7.684;2023-02-23T08:53:51;177.15;;;77.43;;
70467;SDS011;57934;51.532;7.684;2023-02-23T08:56:17;184.85;;;76.22;;
70467;SDS011;57934;51.532;7.684;2023-02-23T08:58:43;172.50;;;74.72;;
70467;SDS011;57934;51.532;7.684;2023-02-23T09:01:16;176.35;;;74.15;;
70467;SDS011;57934;51.532;7.684;2023-02-23T09:03:43;171.27;;;75.10;;
70467;SDS011;57934;51.532;7.684;2023-02-23T09:06:11;159.57;;;72.72;;
70467;SDS011;57934;51.532;7.684;2023-02-23T09:08:40;160.60;;;72.63;;
70467;SDS011;57934;51.532;7.684;2023-02-23T09:11:06;171.27;;;72.60;;
70467;SDS011;57934;51.532;7.684;2023-02-23T09:13:32;209.80;;;81.45;;
70467;SDS011;57934;51.532;7.684;2023-02-23T09:15:58;221.57;;;83.22;;
70467;SDS011;57934;51.532;7.684;2023-02-23T09:18:24;229.35;;;83.88;;
70467;SDS011;57934;51.532;7.684;2023-02-23T09:20:54;224.15;;;84.50;;
70467;SDS011;57934;51.532;7.684;2023-02-23T09:23:20;228.88;;;86.53;;
70467;SDS011;57934;51.532;7.684;2023-02-23T09:25:46;208.50;;;81.63;;
70467;SDS011;57934;51.532;7.684;2023-02-23T09:28:13;212.75;;;83.82;;
70467;SDS011;57934;51.532;7.684;2023-02-23T09:30:42;221.43;;;83.97;;
70467;SDS011;57934;51.532;7.684;2023-02-23T09:33:09;216.32;;;82.65;;
70467;SDS011;57934;51.532;7.684;2023-02-23T09:35:36;205.52;;;80.80;;
70467;SDS011;57934;51.532;7.684;2023-02-23T09:38:03;206.18;;;80.70;;
70467;SDS011;57934;51.532;7.684;2023-02-23T09:40:35;209.82;;;82.50;;
70467;SDS011;57934;51.532;7.684;2023-02-23T09:43:25;213.73;;;82.93;;
70467;SDS011;57934;51.532;7.684;2023-02-23T09:48:46;225.95;;;83.28;;
70467;SDS011;57934;51.532;7.684;2023-02-23T09:51:16;224.63;;;80.65;;
70467;SDS011;57934;51.532;7.684;2023-02-23T09:53:49;219.02;;;82.28;;
70467;SDS011;57934;51.532;7.684;2023-02-23T09:58:47;216.65;;;80.95;;
70467;SDS011;57934;51.532;7.684;2023-02-23T10:06:49;204.57;;;80.88;;
70467;SDS011;57934;51.532;7.684;2023-02-23T10:23:10;144.10;;;64.43;;
70467;SDS011;57934;51.532;7.684;2023-02-23T10:25:43;136.90;;;62.72;;
70467;SDS011;57934;51.532;7.684;2023-02-23T10:28:14;147.70;;;68.45;;
70467;SDS011;57934;51.532;7.684;2023-02-23T10:30:41;144.20;;;68.15;;
70467;SDS011;57934;51.532;7.684;2023-02-23T10:33:12;138.85;;;65.90;;
70467;SDS011;57934;51.532;7.684;2023-02-23T10:35:59;128.50;;;61.33;;
70467;SDS011;57934;51.532;7.684;2023-02-23T10:38:37;132.15;;;59.50;;
70467;SDS011;57934;51.532;7.684;2023-02-23T10:41:02;126.45;;;60.67;;
70467;SDS011;57934;51.532;7.684;2023-02-23T10:43:30;119.50;;;56.97;;
70467;SDS011;57934;51.532;7.684;2023-02-23T10:45:57;107.28;;;54.78;;
70467;SDS011;57934;51.532;7.684;2023-02-23T10:48:25;107.55;;;53.50;;
70467;SDS011;57934;51.532;7.684;2023-02-23T10:50:54;106.95;;;53.75;;
70467;SDS011;57934;51.532;7.684;2023-02-23T10:53:30;111.43;;;54.40;;
70467;SDS011;57934;51.532;7.684;2023-02-23T10:56:04;103.35;;;51.88;;
70467;SDS011;57934;51.532;7.684;2023-02-23T10:58:39;108.65;;;53.45;;
70467;SDS011;57934;51.532;7.684;2023-02-23T11:01:15;111.10;;;54.60;;
70467;SDS011;57934;51.532;7.684;2023-02-23T11:03:56;115.47;;;56.42;;
70467;SDS011;57934;51.532;7.684;2023-02-23T11:06:40;117.50;;;55.55;;
70467;SDS011;57934;51.532;7.684;2023-02-23T11:09:28;110.40;;;53.05;;
70467;SDS011;57934;51.532;7.684;2023-02-23T11:11:57;121.15;;;55.60;;
70467;SDS011;57934;51.532;7.684;2023-02-23T11:14:28;107.32;;;53.80;;
70467;SDS011;57934;51.532;7.684;2023-02-23T11:16:56;111.80;;;53.42;;
70467;SDS011;57934;51.532;7.684;2023-02-23T11:19:32;115.60;;;54.33;;
70467;SDS011;57934;51.532;7.684;2023-02-23T11:22:02;120.82;;;53.75;;
70467;SDS011;57934;51.532;7.684;2023-02-23T11:24:38;124.38;;;56.08;;
70467;SDS011;57934;51.532;7.684;2023-02-23T11:27:06;122.22;;;52.83;;
70467;SDS011;57934;51.532;7.684;2023-02-23T11:29:45;117.13;;;50.70;;
70467;SDS011;57934;51.532;7.684;2023-02-23T11:32:17;114.07;;;49.00;;
70467;SDS011;57934;51.532;7.684;2023-02-23T11:34:46;106.60;;;47.10;;
70467;SDS011;57934;51.532;7.684;2023-02-23T11:37:32;106.07;;;46.92;;
70467;SDS011;57934;51.532;7.684;2023-02-23T11:39:59;94.82;;;43.05;;
70467;SDS011;57934;51.532;7.684;2023-02-23T11:42:28;94.22;;;43.15;;
70467;SDS011;57934;51.532;7.684;2023-02-23T11:45:15;95.13;;;41.35;;
70467;SDS011;57934;51.532;7.684;2023-02-23T11:47:45;93.45;;;43.03;;
70467;SDS011;57934;51.532;7.684;2023-02-23T11:50:24;100.63;;;42.65;;
70467;SDS011;57934;51.532;7.684;2023-02-23T11:52:56;100.72;;;43.47;;
70467;SDS011;57934;51.532;7.684;2023-02-23T11:55:27;88.97;;;40.63;;
70467;SDS011;57934;51.532;7.684;2023-02-23T11:58:06;89.15;;;39.88;;
70467;SDS011;57934;51.532;7.684;2023-02-23T12:00:34;91.32;;;41.63;;
70467;SDS011;57934;51.532;7.684;2023-02-23T12:03:00;94.30;;;42.30;;
70467;SDS011;57934;51.532;7.684;2023-02-23T12:05:28;92.07;;;40.28;;
70467;SDS011;57934;51.532;7.684;2023-02-23T12:07:57;92.25;;;42.63;;
70467;SDS011;57934;51.532;7.684;2023-02-23T12:10:42;95.28;;;40.40;;
70467;SDS011;57934;51.532;7.684;2023-02-23T12:13:19;99.18;;;42.22;;
70467;SDS011;57934;51.532;7.684;2023-02-23T12:15:50;86.18;;;41.08;;
70467;SDS011;57934;51.532;7.684;2023-02-23T12:18:28;90.90;;;39.85;;
70467;SDS011;57934;51.532;7.684;2023-02-23T12:20:56;76.63;;;35.58;;
70467;SDS011;57934;51.532;7.684;2023-02-23T12:23:37;80.35;;;36.50;;
70467;SDS011;57934;51.532;7.684;2023-02-23T12:26:10;82.05;;;36.70;;
70467;SDS011;57934;51.532;7.684;2023-02-23T12:28:44;80.05;;;37.15;;
70467;SDS011;57934;51.532;7.684;2023-02-23T12:33:49;73.18;;;33.45;;
70467;SDS011;57934;51.532;7.684;2023-02-23T12:36:38;78.47;;;36.55;;
70467;SDS011;57934;51.532;7.684;2023-02-23T12:42:06;88.40;;;35.58;;
70467;SDS011;57934;51.532;7.684;2023-02-23T12:44:50;81.78;;;37.00;;
70467;SDS011;57934;51.532;7.684;2023-02-23T12:47:21;76.70;;;32.60;;
70467;SDS011;57934;51.532;7.684;2023-02-23T12:49:58;75.75;;;32.15;;
70467;SDS011;57934;51.532;7.684;2023-02-23T12:52:36;73.68;;;32.20;;
70467;SDS011;57934;51.532;7.684;2023-02-23T12:55:09;68.57;;;29.77;;
70467;SDS011;57934;51.532;7.684;2023-02-23T12:57:47;72.28;;;32.00;;
70467;SDS011;57934;51.532;7.684;2023-02-23T13:03:14;77.20;;;33.40;;
70467;SDS011;57934;51.532;7.684;2023-02-23T13:05:56;79.30;;;33.40;;
70467;SDS011;57934;51.532;7.684;2023-02-23T13:08:37;79.40;;;33.40;;
70467;SDS011;57934;51.532;7.684;2023-02-23T13:14:03;84.07;;;34.30;;
70467;SDS011;57934;51.532;7.684;2023-02-23T13:19:49;84.07;;;34.75;;
70467;SDS011;57934;51.532;7.684;2023-02-23T13:24:54;79.70;;;33.78;;
70467;SDS011;57934;51.532;7.684;2023-02-23T13:27:33;86.47;;;35.17;;
70467;SDS011;57934;51.532;7.684;2023-02-23T13:30:03;83.47;;;36.22;;
70467;SDS011;57934;51.532;7.684;2023-02-23T13:32:31;88.80;;;37.67;;
70467;SDS011;57934;51.532;7.684;2023-02-23T13:34:59;87.63;;;36.83;;
70467;SDS011;57934;51.532;7.684;2023-02-23T13:37:27;76.32;;;33.25;;
70467;SDS011;57934;51.532;7.684;2023-02-23T13:45:34;78.53;;;34.00;;
70467;SDS011;57934;51.532;7.684;2023-02-23T13:48:15;77.78;;;33.58;;
70467;SDS011;57934;51.532;7.684;2023-02-23T13:51:02;73.65;;;31.55;;
70467;SDS011;57934;51.532;7.684;2023-02-23T13:56:18;68.47;;;29.70;;
70467;SDS011;57934;51.532;7.684;2023-02-23T13:58:53;64.75;;;29.65;;
70467;SDS011;57934;51.532;7.684;2023-02-23T14:01:36;64.20;;;28.70;;
70467;SDS011;57934;51.532;7.684;2023-02-23T14:04:06;68.97;;;29.98;;
70467;SDS011;57934;51.532;7.684;2023-02-23T14:06:39;63.88;;;28.52;;
70467;SDS011;57934;51.532;7.684;2023-02-23T14:09:19;68.10;;;27.27;;
70467;SDS011;57934;51.532;7.684;2023-02-23T14:17:09;64.93;;;28.05;;
70467;SDS011;57934;51.532;7.684;2023-02-23T14:36:26;56.38;;;25.30;;
70467;SDS011;57934;51.532;7.684;2023-02-23T14:41:54;56.53;;;23.88;;
70467;SDS011;57934;51.532;7.684;2023-02-23T14:47:06;49.42;;;22.20;;
70467;SDS011;57934;51.532;7.684;2023-02-23T14:49:37;59.63;;;23.85;;
70467;SDS011;57934;51.532;7.684;2023-02-23T14:54:46;60.92;;;25.92;;
70467;SDS011;57934;51.532;7.684;2023-02-23T14:57:20;60.50;;;25.38;;
70467;SDS011;57934;51.532;7.684;2023-02-23T15:00:31;62.67;;;26.35;;
70467;SDS011;57934;51.532;7.684;2023-02-23T15:02:37;63.83;;;25.75;;
70467;SDS011;57934;51.532;7.684;2023-02-23T15:05:13;65.32;;;26.58;;
70467;SDS011;57934;51.532;7.684;2023-02-23T15:07:40;68.88;;;26.92;;
70467;SDS011;57934;51.532;7.684;2023-02-23T15:10:11;73.82;;;26.92;;
70467;SDS011;57934;51.532;7.684;2023-02-23T15:12:44;72.40;;;27.08;;
70467;SDS011;57934;51.532;7.684;2023-02-23T15:15:18;67.18;;;25.10;;
70467;SDS011;57934;51.532;7.684;2023-02-23T15:17:48;75.13;;;26.83;;
70467;SDS011;57934;51.532;7.684;2023-02-23T15:20:18;76.20;;;27.73;;
70467;SDS011;57934;51.532;7.684;2023-02-23T15:22:57;78.32;;;28.30;;
70467;SDS011;57934;51.532;7.684;2023-02-23T15:25:32;77.15;;;27.42;;
70467;SDS011;57934;51.532;7.684;2023-02-23T15:28:09;78.82;;;28.20;;
70467;SDS011;57934;51.532;7.684;2023-02-23T15:30:43;76.90;;;27.30;;
70467;SDS011;57934;51.532;7.684;2023-02-23T15:33:12;78.50;;;27.67;;
70467;SDS011;57934;51.532;7.684;2023-02-23T15:35:50;86.60;;;31.93;;
70467;SDS011;57934;51.532;7.684;2023-02-23T15:38:22;79.88;;;28.52;;
70467;SDS011;57934;51.532;7.684;2023-02-23T15:40:55;86.60;;;29.05;;
70467;SDS011;57934;51.532;7.684;2023-02-23T15:43:23;85.90;;;29.13;;
70467;SDS011;57934;51.532;7.684;2023-02-23T15:45:54;84.68;;;29.60;;
70467;SDS011;57934;51.532;7.684;2023-02-23T15:48:25;79.45;;;28.05;;
70467;SDS011;57934;51.532;7.684;2023-02-23T15:51:03;83.15;;;28.95;;
70467;SDS011;57934;51.532;7.684;2023-02-23T15:53:32;89.93;;;31.55;;
70467;SDS011;57934;51.532;7.684;2023-02-23T15:56:02;78.90;;;28.73;;
70467;SDS011;57934;51.532;7.684;2023-02-23T15:58:37;80.05;;;29.38;;
70467;SDS011;57934;51.532;7.684;2023-02-23T16:01:14;82.50;;;29.83;;
70467;SDS011;57934;51.532;7.684;2023-02-23T16:03:45;83.88;;;28.65;;
70467;SDS011;57934;51.532;7.684;2023-02-23T16:06:23;81.22;;;31.08;;
70467;SDS011;57934;51.532;7.684;2023-02-23T16:14:24;79.85;;;28.00;;
70467;SDS011;57934;51.532;7.684;2023-02-23T16:16:53;80.60;;;30.25;;
70467;SDS011;57934;51.532;7.684;2023-02-23T16:19:20;91.47;;;30.08;;
70467;SDS011;57934;51.532;7.684;2023-02-23T16:21:49;82.60;;;29.60;;
70467;SDS011;57934;51.532;7.684;2023-02-23T16:24:25;85.97;;;28.95;;
70467;SDS011;57934;51.532;7.684;2023-02-23T16:26:54;81.43;;;28.48;;
70467;SDS011;57934;51.532;7.684;2023-02-23T16:29:32;86.40;;;30.75;;
70467;SDS011;57934;51.532;7.684;2023-02-23T16:32:10;86.65;;;29.70;;
70467;SDS011;57934;51.532;7.684;2023-02-23T16:34:55;89.07;;;30.40;;
70467;SDS011;57934;51.532;7.684;2023-02-23T16:37:25;95.03;;;29.45;;
70467;SDS011;57934;51.532;7.684;2023-02-23T16:39:52;93.10;;;30.95;;
70467;SDS011;57934;51.532;7.684;2023-02-23T16:42:27;90.78;;;29.17;;
70467;SDS011;57934;51.532;7.684;2023-02-23T16:44:53;89.55;;;29.55;;